Shinmichimaru — JM6603 — position and weather

sailwx.info

Track history (hours):
 
Tides and Currents Weather Stations Pressure Air Temp Water Temp Dewpoint Dewpoint Depression Visibility Wind Speed Wind Dir Waves Ship Positions

Shinmichimaru

Last reported at 2018-Jun-15 14:08 UTC. Time now 2018-Jun-25 11:42 UTC.
Position N 35°04' E 139°37'.
Warning: this ship's position is 9 days out of date.

Length 105 m; draft 5.2 m.

Type: Tanker. MMSI: 432356000.

Date/timePositionNaut miles runAvg speedWind from/ knotsBaromVisibWave heightAir tempDewpointWater temp
2018-Jun-15 14:08N 35°04' E 139°37'313.9
2018-Jun-15 13:53N 35°05' E 139°40'614.1
2018-Jun-15 13:28N 35°10' E 139°45'613.3
2018-Jun-15 13:00N 35°16' E 139°46'713.4
2018-Jun-15 12:30N 35°22' E 139°42'714.0
2018-Jun-15 12:00N 35°28' E 139°47'3 6.1
2018-Jun-15 11:29N 35°30' E 139°44'0 0.0
2018-Jun-15 10:59N 35°30' E 139°44'0 0.0
2018-Jun-15 10:29N 35°30' E 139°44'0 0.0
2018-Jun-15 09:56N 35°30' E 139°44'0 0.0
2018-Jun-15 09:26N 35°30' E 139°44'0 0.0
2018-Jun-15 08:59N 35°30' E 139°44'0 0.0
2018-Jun-15 08:29N 35°30' E 139°44'0 0.0
2018-Jun-15 07:59N 35°30' E 139°44'0 0.0
2018-Jun-15 07:29N 35°30' E 139°44'0 0.0
2018-Jun-15 07:00N 35°30' E 139°44'0 0.3
2018-Jun-15 06:30N 35°30' E 139°44'3 5.3
2018-Jun-15 06:00N 35°27' E 139°43'5 9.9
2018-Jun-15 05:30N 35°29' E 139°49'0 0.1
2018-Jun-15 04:58N 35°29' E 139°49'0 0.0
2018-Jun-15 04:28N 35°29' E 139°49'0 0.0
2018-Jun-15 03:58N 35°29' E 139°49'0 0.0
2018-Jun-15 03:28N 35°29' E 139°49'2 3.5
2018-Jun-15 03:01N 35°30' E 139°48'2 3.8
2018-Jun-15 02:31N 35°30' E 139°45'0 0.0
2018-Jun-15 02:00N 35°30' E 139°45'0 0.0
2018-Jun-15 01:31N 35°30' E 139°45'0 0.0
2018-Jun-15 01:01N 35°30' E 139°45'0 0.0
2018-Jun-15 00:31N 35°30' E 139°45'0 0.0
2018-Jun-15 00:01N 35°30' E 139°45'0 0.0
2018-Jun-14 23:31N 35°30' E 139°45'0 0.0
2018-Jun-14 23:01N 35°30' E 139°45'0 0.0
2018-Jun-14 22:31N 35°30' E 139°45'2 3.8
2018-Jun-14 22:01N 35°29' E 139°43'4 8.6
2018-Jun-14 21:31N 35°25' E 139°44'2 3.1
2018-Jun-14 21:00N 35°24' E 139°45'0 0.0
2018-Jun-14 20:30N 35°24' E 139°45'0 0.0
2018-Jun-14 20:00N 35°24' E 139°45'0 0.0
2018-Jun-14 19:30N 35°24' E 139°45'0 0.1
2018-Jun-14 19:00N 35°24' E 139°45'0 0.1
2018-Jun-14 18:30N 35°24' E 139°45'0 0.0
2018-Jun-14 18:00N 35°24' E 139°45'0 0.0
2018-Jun-14 17:30N 35°24' E 139°45'0 0.1
2018-Jun-14 17:00N 35°24' E 139°45'0 0.0
2018-Jun-14 16:30N 35°24' E 139°45'0 0.0
2018-Jun-14 16:00N 35°24' E 139°45'0 0.0
2018-Jun-14 15:30N 35°24' E 139°45'0 0.0
2018-Jun-14 15:00N 35°24' E 139°45'0 0.0
2018-Jun-14 14:30N 35°24' E 139°45'0 0.0
2018-Jun-14 14:00N 35°24' E 139°45'0 0.0
2018-Jun-14 13:30N 35°24' E 139°45'0 0.0
2018-Jun-14 13:00N 35°24' E 139°45'0 0.0
2018-Jun-14 12:30N 35°24' E 139°45'0 0.0
2018-Jun-14 12:00N 35°24' E 139°45'0 0.0
2018-Jun-14 11:30N 35°24' E 139°45'2 3.5
2018-Jun-14 11:00N 35°22' E 139°44'611.6
2018-Jun-14 10:30N 35°17' E 139°46'612.5
2018-Jun-14 09:59N 35°10' E 139°46'7 0.3
2018-Jun-13 12:49N 35°05' E 139°40'512.7
2018-Jun-13 12:23N 35°09' E 139°44'512.9
2018-Jun-13 12:00N 35°14' E 139°46'713.0
2018-Jun-13 11:30N 35°20' E 139°43'611.9
2018-Jun-13 11:00N 35°25' E 139°44'612.8
2018-Jun-13 10:30N 35°29' E 139°51'9 0.9
2018-Jun-13 01:12N 35°30' E 140°01'2 6.2
2018-Jun-13 00:52N 35°30' E 139°59'512.9
2018-Jun-13 00:30N 35°29' E 139°54'612.6
2018-Jun-13 00:00N 35°25' E 139°47'612.4
2018-Jun-12 23:30N 35°19' E 139°44'611.5
2018-Jun-12 23:00N 35°14' E 139°47'612.0
2018-Jun-12 22:30N 35°08' E 139°46'  
2018-Jun-10 09:05N 35°08' E 139°45'314.1
2018-Jun-10 08:51N 35°11' E 139°46'513.4
2018-Jun-10 08:30N 35°16' E 139°46'612.9
2018-Jun-10 08:00N 35°21' E 139°42'713.0
2018-Jun-10 07:30N 35°27' E 139°47'713.4
2018-Jun-10 07:00N 35°30' E 139°54'5 0.7
2018-Jun-09 23:53N 35°29' E 140°01'2 5.3
2018-Jun-09 23:30N 35°30' E 139°58'0 0.1
2018-Jun-09 22:57N 35°30' E 139°58'0 0.0
2018-Jun-09 22:24N 35°30' E 139°58'0 0.1
2018-Jun-09 21:45N 35°30' E 139°58'0 0.2
2018-Jun-09 21:27N 35°30' E 139°58'0 0.0
2018-Jun-09 21:00N 35°30' E 139°58'0 0.1
2018-Jun-09 20:15N 35°30' E 139°58'0 0.2
2018-Jun-09 20:00N 35°30' E 139°58'0 0.1
2018-Jun-09 19:18N 35°30' E 139°58'0 0.0
2018-Jun-09 18:57N 35°30' E 139°58'0 0.0
2018-Jun-09 18:30N 35°30' E 139°58'0 0.0
2018-Jun-09 18:00N 35°30' E 139°58'0 0.0
2018-Jun-09 17:30N 35°30' E 139°58'0 0.0
2018-Jun-09 17:00N 35°30' E 139°58'0 0.0
2018-Jun-09 16:30N 35°30' E 139°58'0 0.0
2018-Jun-09 16:00N 35°30' E 139°58'0 0.0
2018-Jun-09 14:54N 35°30' E 139°58'0 0.0
2018-Jun-09 14:27N 35°30' E 139°58'0 0.0
2018-Jun-09 13:51N 35°30' E 139°58'0 0.0
2018-Jun-09 13:30N 35°30' E 139°58'0 0.0
2018-Jun-09 13:00N 35°30' E 139°58'0 0.0
2018-Jun-09 10:49N 35°30' E 139°58'2 6.9
2018-Jun-09 10:31N 35°29' E 139°56'713.3
2018-Jun-09 10:01N 35°27' E 139°48'611.7
2018-Jun-09 09:31N 35°27' E 139°41'1 1.7
2018-Jun-09 08:58N 35°27' E 139°40'0 0.0
2018-Jun-09 08:28N 35°27' E 139°40'0 0.0
2018-Jun-09 07:58N 35°27' E 139°40'0 0.0
2018-Jun-09 07:28N 35°27' E 139°40'0 0.0
2018-Jun-09 06:58N 35°27' E 139°40'0 0.0
2018-Jun-09 06:28N 35°27' E 139°40'0 0.0
2018-Jun-09 05:58N 35°27' E 139°40'0 0.0
2018-Jun-09 05:28N 35°27' E 139°40'0 0.0
2018-Jun-09 04:58N 35°27' E 139°40'0 0.0
2018-Jun-09 04:28N 35°27' E 139°40'0 0.0
2018-Jun-09 03:58N 35°27' E 139°40'0 0.0
2018-Jun-09 03:28N 35°27' E 139°40'0 0.0
2018-Jun-09 02:58N 35°27' E 139°40'0 0.0
2018-Jun-09 02:28N 35°27' E 139°40'0 0.0
2018-Jun-09 01:58N 35°27' E 139°40'0 0.0
2018-Jun-09 01:28N 35°27' E 139°40'0 0.0
2018-Jun-09 01:01N 35°27' E 139°40'2 3.3
2018-Jun-09 00:31N 35°27' E 139°42'4 7.3
2018-Jun-09 00:01N 35°24' E 139°44'2 3.2
2018-Jun-08 23:28N 35°22' E 139°44'0 0.0
2018-Jun-08 22:58N 35°22' E 139°44'0 0.0
2018-Jun-08 22:28N 35°22' E 139°44'0 0.0
2018-Jun-08 21:58N 35°22' E 139°44'0 0.0
2018-Jun-08 21:28N 35°22' E 139°44'0 0.0
2018-Jun-08 20:52N 35°22' E 139°44'0 0.0
2018-Jun-08 20:28N 35°22' E 139°44'0 0.0
2018-Jun-08 19:58N 35°22' E 139°44'0 0.0
2018-Jun-08 19:28N 35°22' E 139°44'0 0.0
2018-Jun-08 18:58N 35°22' E 139°44'0 0.1
2018-Jun-08 18:28N 35°22' E 139°44'0 0.1
2018-Jun-08 17:58N 35°22' E 139°44'0 0.0
2018-Jun-08 17:28N 35°22' E 139°44'0 0.1
2018-Jun-08 16:58N 35°22' E 139°44'0 0.0
2018-Jun-08 16:28N 35°22' E 139°44'0 0.0
2018-Jun-08 15:55N 35°22' E 139°44'0 0.0
2018-Jun-08 15:28N 35°22' E 139°44'0 0.1
2018-Jun-08 14:58N 35°22' E 139°44'0 0.0
2018-Jun-08 14:28N 35°22' E 139°44'0 0.0
2018-Jun-08 13:58N 35°22' E 139°44'0 0.0
2018-Jun-08 13:28N 35°22' E 139°44'0 0.0
2018-Jun-08 12:55N 35°22' E 139°44'0 0.0
2018-Jun-08 12:25N 35°22' E 139°44'0 0.0
2018-Jun-08 11:58N 35°22' E 139°44'0 0.0
2018-Jun-08 11:25N 35°22' E 139°44'0 0.0
2018-Jun-08 10:58N 35°22' E 139°44'0 0.0
2018-Jun-08 10:28N 35°22' E 139°44'0 0.0
2018-Jun-08 09:55N 35°22' E 139°44'0 0.0
2018-Jun-08 09:28N 35°22' E 139°44'0 0.0
2018-Jun-08 08:58N 35°22' E 139°44'0 0.0
2018-Jun-08 08:28N 35°22' E 139°44'0 0.0
2018-Jun-08 07:58N 35°22' E 139°44'0 0.0
2018-Jun-08 07:28N 35°22' E 139°44'0 0.0
2018-Jun-08 06:58N 35°22' E 139°44'0 0.0
2018-Jun-08 06:28N 35°22' E 139°44'0 0.1
2018-Jun-08 05:58N 35°22' E 139°44'0 0.0
2018-Jun-08 05:28N 35°22' E 139°44'0 0.0
2018-Jun-08 04:58N 35°22' E 139°44'0 0.0
2018-Jun-08 04:28N 35°22' E 139°44'0 0.0
2018-Jun-08 03:58N 35°22' E 139°44'0 0.0
2018-Jun-08 03:28N 35°22' E 139°44'0 0.0
2018-Jun-08 02:55N 35°22' E 139°44'0 0.0
2018-Jun-08 02:28N 35°22' E 139°44'0 0.0
2018-Jun-08 01:55N 35°22' E 139°44'0 0.0
2018-Jun-08 01:28N 35°22' E 139°44'0 0.0
2018-Jun-08 00:58N 35°22' E 139°44'0 0.0
2018-Jun-08 00:28N 35°22' E 139°44'0 0.0
2018-Jun-07 23:58N 35°22' E 139°44'0 0.0
2018-Jun-07 23:28N 35°22' E 139°44'0 0.0
2018-Jun-07 22:58N 35°22' E 139°44'0 0.0
2018-Jun-07 22:28N 35°22' E 139°44'0 0.0
2018-Jun-07 21:58N 35°22' E 139°44'0 0.0
2018-Jun-07 21:28N 35°22' E 139°44'0 0.0
2018-Jun-07 20:58N 35°22' E 139°44'0 0.0
2018-Jun-07 20:28N 35°22' E 139°44'0 0.0
2018-Jun-07 19:58N 35°22' E 139°44'0 0.0
2018-Jun-07 19:28N 35°22' E 139°44'0 0.0
2018-Jun-07 18:58N 35°22' E 139°44'0 0.1
2018-Jun-07 18:28N 35°22' E 139°44'3 7.5
2018-Jun-07 18:00N 35°18' E 139°44'612.6
2018-Jun-07 17:30N 35°12' E 139°47'  
Track history (hours):
 
Tides and Currents Weather Stations Pressure Air Temp Water Temp Dewpoint Dewpoint Depression Visibility Wind Speed Wind Dir Waves Ship Positions

Shinmichimaru

Last reported at 2018-Jun-15 14:08 UTC. Time now 2018-Jun-25 11:42 UTC.
Position N 35°04' E 139°37'.
Warning: this ship's position is 9 days out of date.

Length 105 m; draft 5.2 m.

Type: Tanker. MMSI: 432356000.

Date/timePositionNaut miles runAvg speedWind from/ knotsBaromVisibWave heightAir tempDewpointWater temp
2018-Jun-15 14:08N 35°04' E 139°37'313.9
2018-Jun-15 13:53N 35°05' E 139°40'614.1
2018-Jun-15 13:28N 35°10' E 139°45'613.3
2018-Jun-15 13:00N 35°16' E 139°46'713.4
2018-Jun-15 12:30N 35°22' E 139°42'714.0
2018-Jun-15 12:00N 35°28' E 139°47'3 6.1
2018-Jun-15 11:29N 35°30' E 139°44'0 0.0
2018-Jun-15 10:59N 35°30' E 139°44'0 0.0
2018-Jun-15 10:29N 35°30' E 139°44'0 0.0
2018-Jun-15 09:56N 35°30' E 139°44'0 0.0
2018-Jun-15 09:26N 35°30' E 139°44'0 0.0
2018-Jun-15 08:59N 35°30' E 139°44'0 0.0
2018-Jun-15 08:29N 35°30' E 139°44'0 0.0
2018-Jun-15 07:59N 35°30' E 139°44'0 0.0
2018-Jun-15 07:29N 35°30' E 139°44'0 0.0
2018-Jun-15 07:00N 35°30' E 139°44'0 0.3
2018-Jun-15 06:30N 35°30' E 139°44'3 5.3
2018-Jun-15 06:00N 35°27' E 139°43'5 9.9
2018-Jun-15 05:30N 35°29' E 139°49'0 0.1
2018-Jun-15 04:58N 35°29' E 139°49'0 0.0
2018-Jun-15 04:28N 35°29' E 139°49'0 0.0
2018-Jun-15 03:58N 35°29' E 139°49'0 0.0
2018-Jun-15 03:28N 35°29' E 139°49'2 3.5
2018-Jun-15 03:01N 35°30' E 139°48'2 3.8
2018-Jun-15 02:31N 35°30' E 139°45'0 0.0
2018-Jun-15 02:00N 35°30' E 139°45'0 0.0
2018-Jun-15 01:31N 35°30' E 139°45'0 0.0
2018-Jun-15 01:01N 35°30' E 139°45'0 0.0
2018-Jun-15 00:31N 35°30' E 139°45'0 0.0
2018-Jun-15 00:01N 35°30' E 139°45'0 0.0
2018-Jun-14 23:31N 35°30' E 139°45'0 0.0
2018-Jun-14 23:01N 35°30' E 139°45'0 0.0
2018-Jun-14 22:31N 35°30' E 139°45'2 3.8
2018-Jun-14 22:01N 35°29' E 139°43'4 8.6
2018-Jun-14 21:31N 35°25' E 139°44'2 3.1
2018-Jun-14 21:00N 35°24' E 139°45'0 0.0
2018-Jun-14 20:30N 35°24' E 139°45'0 0.0
2018-Jun-14 20:00N 35°24' E 139°45'0 0.0
2018-Jun-14 19:30N 35°24' E 139°45'0 0.1
2018-Jun-14 19:00N 35°24' E 139°45'0 0.1
2018-Jun-14 18:30N 35°24' E 139°45'0 0.0
2018-Jun-14 18:00N 35°24' E 139°45'0 0.0
2018-Jun-14 17:30N 35°24' E 139°45'0 0.1
2018-Jun-14 17:00N 35°24' E 139°45'0 0.0
2018-Jun-14 16:30N 35°24' E 139°45'0 0.0
2018-Jun-14 16:00N 35°24' E 139°45'0 0.0
2018-Jun-14 15:30N 35°24' E 139°45'0 0.0
2018-Jun-14 15:00N 35°24' E 139°45'0 0.0
2018-Jun-14 14:30N 35°24' E 139°45'0 0.0
2018-Jun-14 14:00N 35°24' E 139°45'0 0.0
2018-Jun-14 13:30N 35°24' E 139°45'0 0.0
2018-Jun-14 13:00N 35°24' E 139°45'0 0.0
2018-Jun-14 12:30N 35°24' E 139°45'0 0.0
2018-Jun-14 12:00N 35°24' E 139°45'0 0.0
2018-Jun-14 11:30N 35°24' E 139°45'2 3.5
2018-Jun-14 11:00N 35°22' E 139°44'611.6
2018-Jun-14 10:30N 35°17' E 139°46'612.5
2018-Jun-14 09:59N 35°10' E 139°46'7 0.3
2018-Jun-13 12:49N 35°05' E 139°40'512.7
2018-Jun-13 12:23N 35°09' E 139°44'512.9
2018-Jun-13 12:00N 35°14' E 139°46'713.0
2018-Jun-13 11:30N 35°20' E 139°43'611.9
2018-Jun-13 11:00N 35°25' E 139°44'612.8
2018-Jun-13 10:30N 35°29' E 139°51'9 0.9
2018-Jun-13 01:12N 35°30' E 140°01'2 6.2
2018-Jun-13 00:52N 35°30' E 139°59'512.9
2018-Jun-13 00:30N 35°29' E 139°54'612.6
2018-Jun-13 00:00N 35°25' E 139°47'612.4
2018-Jun-12 23:30N 35°19' E 139°44'611.5
2018-Jun-12 23:00N 35°14' E 139°47'612.0
2018-Jun-12 22:30N 35°08' E 139°46'  
2018-Jun-10 09:05N 35°08' E 139°45'314.1
2018-Jun-10 08:51N 35°11' E 139°46'513.4
2018-Jun-10 08:30N 35°16' E 139°46'612.9
2018-Jun-10 08:00N 35°21' E 139°42'713.0
2018-Jun-10 07:30N 35°27' E 139°47'713.4
2018-Jun-10 07:00N 35°30' E 139°54'5 0.7
2018-Jun-09 23:53N 35°29' E 140°01'2 5.3
2018-Jun-09 23:30N 35°30' E 139°58'0 0.1
2018-Jun-09 22:57N 35°30' E 139°58'0 0.0
2018-Jun-09 22:24N 35°30' E 139°58'0 0.1
2018-Jun-09 21:45N 35°30' E 139°58'0 0.2
2018-Jun-09 21:27N 35°30' E 139°58'0 0.0
2018-Jun-09 21:00N 35°30' E 139°58'0 0.1
2018-Jun-09 20:15N 35°30' E 139°58'0 0.2
2018-Jun-09 20:00N 35°30' E 139°58'0 0.1
2018-Jun-09 19:18N 35°30' E 139°58'0 0.0
2018-Jun-09 18:57N 35°30' E 139°58'0 0.0
2018-Jun-09 18:30N 35°30' E 139°58'0 0.0
2018-Jun-09 18:00N 35°30' E 139°58'0 0.0
2018-Jun-09 17:30N 35°30' E 139°58'0 0.0
2018-Jun-09 17:00N 35°30' E 139°58'0 0.0
2018-Jun-09 16:30N 35°30' E 139°58'0 0.0
2018-Jun-09 16:00N 35°30' E 139°58'0 0.0
2018-Jun-09 14:54N 35°30' E 139°58'0 0.0
2018-Jun-09 14:27N 35°30' E 139°58'0 0.0
2018-Jun-09 13:51N 35°30' E 139°58'0 0.0
2018-Jun-09 13:30N 35°30' E 139°58'0 0.0
2018-Jun-09 13:00N 35°30' E 139°58'0 0.0
2018-Jun-09 10:49N 35°30' E 139°58'2 6.9
2018-Jun-09 10:31N 35°29' E 139°56'713.3
2018-Jun-09 10:01N 35°27' E 139°48'611.7
2018-Jun-09 09:31N 35°27' E 139°41'1 1.7
2018-Jun-09 08:58N 35°27' E 139°40'0 0.0
2018-Jun-09 08:28N 35°27' E 139°40'0 0.0
2018-Jun-09 07:58N 35°27' E 139°40'0 0.0
2018-Jun-09 07:28N 35°27' E 139°40'0 0.0
2018-Jun-09 06:58N 35°27' E 139°40'0 0.0
2018-Jun-09 06:28N 35°27' E 139°40'0 0.0
2018-Jun-09 05:58N 35°27' E 139°40'0 0.0
2018-Jun-09 05:28N 35°27' E 139°40'0 0.0
2018-Jun-09 04:58N 35°27' E 139°40'0 0.0
2018-Jun-09 04:28N 35°27' E 139°40'0 0.0
2018-Jun-09 03:58N 35°27' E 139°40'0 0.0
2018-Jun-09 03:28N 35°27' E 139°40'0 0.0
2018-Jun-09 02:58N 35°27' E 139°40'0 0.0
2018-Jun-09 02:28N 35°27' E 139°40'0 0.0
2018-Jun-09 01:58N 35°27' E 139°40'0 0.0
2018-Jun-09 01:28N 35°27' E 139°40'0 0.0
2018-Jun-09 01:01N 35°27' E 139°40'2 3.3
2018-Jun-09 00:31N 35°27' E 139°42'4 7.3
2018-Jun-09 00:01N 35°24' E 139°44'2 3.2
2018-Jun-08 23:28N 35°22' E 139°44'0 0.0
2018-Jun-08 22:58N 35°22' E 139°44'0 0.0
2018-Jun-08 22:28N 35°22' E 139°44'0 0.0
2018-Jun-08 21:58N 35°22' E 139°44'0 0.0
2018-Jun-08 21:28N 35°22' E 139°44'0 0.0
2018-Jun-08 20:52N 35°22' E 139°44'0 0.0
2018-Jun-08 20:28N 35°22' E 139°44'0 0.0
2018-Jun-08 19:58N 35°22' E 139°44'0 0.0
2018-Jun-08 19:28N 35°22' E 139°44'0 0.0
2018-Jun-08 18:58N 35°22' E 139°44'0 0.1
2018-Jun-08 18:28N 35°22' E 139°44'0 0.1
2018-Jun-08 17:58N 35°22' E 139°44'0 0.0
2018-Jun-08 17:28N 35°22' E 139°44'0 0.1
2018-Jun-08 16:58N 35°22' E 139°44'0 0.0
2018-Jun-08 16:28N 35°22' E 139°44'0 0.0
2018-Jun-08 15:55N 35°22' E 139°44'0 0.0
2018-Jun-08 15:28N 35°22' E 139°44'0 0.1
2018-Jun-08 14:58N 35°22' E 139°44'0 0.0
2018-Jun-08 14:28N 35°22' E 139°44'0 0.0
2018-Jun-08 13:58N 35°22' E 139°44'0 0.0
2018-Jun-08 13:28N 35°22' E 139°44'0 0.0
2018-Jun-08 12:55N 35°22' E 139°44'0 0.0
2018-Jun-08 12:25N 35°22' E 139°44'0 0.0
2018-Jun-08 11:58N 35°22' E 139°44'0 0.0
2018-Jun-08 11:25N 35°22' E 139°44'0 0.0
2018-Jun-08 10:58N 35°22' E 139°44'0 0.0
2018-Jun-08 10:28N 35°22' E 139°44'0 0.0
2018-Jun-08 09:55N 35°22' E 139°44'0 0.0
2018-Jun-08 09:28N 35°22' E 139°44'0 0.0
2018-Jun-08 08:58N 35°22' E 139°44'0 0.0
2018-Jun-08 08:28N 35°22' E 139°44'0 0.0
2018-Jun-08 07:58N 35°22' E 139°44'0 0.0
2018-Jun-08 07:28N 35°22' E 139°44'0 0.0
2018-Jun-08 06:58N 35°22' E 139°44'0 0.0
2018-Jun-08 06:28N 35°22' E 139°44'0 0.1
2018-Jun-08 05:58N 35°22' E 139°44'0 0.0
2018-Jun-08 05:28N 35°22' E 139°44'0 0.0
2018-Jun-08 04:58N 35°22' E 139°44'0 0.0
2018-Jun-08 04:28N 35°22' E 139°44'0 0.0
2018-Jun-08 03:58N 35°22' E 139°44'0 0.0
2018-Jun-08 03:28N 35°22' E 139°44'0 0.0
2018-Jun-08 02:55N 35°22' E 139°44'0 0.0
2018-Jun-08 02:28N 35°22' E 139°44'0 0.0
2018-Jun-08 01:55N 35°22' E 139°44'0 0.0
2018-Jun-08 01:28N 35°22' E 139°44'0 0.0
2018-Jun-08 00:58N 35°22' E 139°44'0 0.0
2018-Jun-08 00:28N 35°22' E 139°44'0 0.0
2018-Jun-07 23:58N 35°22' E 139°44'0 0.0
2018-Jun-07 23:28N 35°22' E 139°44'0 0.0
2018-Jun-07 22:58N 35°22' E 139°44'0 0.0
2018-Jun-07 22:28N 35°22' E 139°44'0 0.0
2018-Jun-07 21:58N 35°22' E 139°44'0 0.0
2018-Jun-07 21:28N 35°22' E 139°44'0 0.0
2018-Jun-07 20:58N 35°22' E 139°44'0 0.0
2018-Jun-07 20:28N 35°22' E 139°44'0 0.0
2018-Jun-07 19:58N 35°22' E 139°44'0 0.0
2018-Jun-07 19:28N 35°22' E 139°44'0 0.0
2018-Jun-07 18:58N 35°22' E 139°44'0 0.1
2018-Jun-07 18:28N 35°22' E 139°44'3 7.5
2018-Jun-07 18:00N 35°18' E 139°44'612.6
2018-Jun-07 17:30N 35°12' E 139°47'  

Dump ship's entire track history